Time;durP1;ratioP1;P1;durP2;ratioP2;P2;SDS_P1;SDS_P2;PMS_P1;PMS_P2;Temp;Humidity;BMP_temperature;BMP_pressure;BME280_temperature;BME280_humidity;BME280_pressure;Samples;Min_cycle;Max_cycle;Signal;HPM_P1;HPM_P2
2021/10/18 00:00:58;;;;;;;43.92;23.62;;;;;;;6.02;80.16;100649.39;1739550;82;25458;-59
2021/10/18 00:03:25;;;;;;;46.23;24.92;;;;;;;6.03;80.18;100652.88;1756133;81;25530;-59
2021/10/18 00:05:52;;;;;;;41.95;23.62;;;;;;;6.02;80.18;100649.39;1739770;82;25616;-59
2021/10/18 00:08:18;;;;;;;46.15;24.90;;;;;;;6.02;80.35;100654.77;1756169;81;27503;-59
2021/10/18 00:10:45;;;;;;;43.80;24.05;;;;;;;6.02;80.34;100648.05;1739550;82;25826;-59
2021/10/18 00:13:12;;;;;;;44.40;23.38;;;;;;;6.04;80.24;100654.50;1755694;81;25634;-59
2021/10/18 00:15:39;;;;;;;41.13;24.27;;;;;;;6.07;80.29;100653.97;1739085;82;25778;-59
2021/10/18 00:18:06;;;;;;;41.02;23.25;;;;;;;6.06;80.35;100653.69;1755624;81;25439;-59
2021/10/18 00:20:34;;;;;;;43.17;22.90;;;;;;;6.07;80.38;100652.08;1739090;82;28663;-59
2021/10/18 00:23:01;;;;;;;41.15;23.18;;;;;;;6.08;80.42;100649.67;1755613;81;25502;-59
2021/10/18 00:25:29;;;;;;;42.23;21.97;;;;;;;6.11;80.52;100652.34;1739126;82;25686;-59
2021/10/18 00:27:56;;;;;;;37.40;20.62;;;;;;;6.12;80.52;100651.27;1755566;81;25982;-59
2021/10/18 00:30:22;;;;;;;44.67;21.82;;;;;;;6.12;80.51;100648.05;1739138;82;25482;-59
2021/10/18 00:32:50;;;;;;;36.77;21.42;;;;;;;6.14;80.47;100646.44;1755636;81;28218;-59
2021/10/18 00:35:17;;;;;;;37.28;21.07;;;;;;;6.17;80.47;100652.61;1739042;82;25840;-59
2021/10/18 00:37:45;;;;;;;43.58;23.60;;;;;;;6.19;80.45;100644.29;1755581;81;25499;-60
2021/10/18 11:55:46;;;;;;;3.60;2.17;;;;;;;19.85;46.42;100953.45;1867521;76;25355;-59
2021/10/18 11:58:24;;;;;;;4.42;2.15;;;;;;;20.33;45.15;100948.67;1823514;78;25564;-59
2021/10/18 12:01:04;;;;;;;4.45;2.52;;;;;;;20.65;45.14;100941.69;1823437;78;28099;-59
2021/10/18 12:03:35;;;;;;;4.75;2.10;;;;;;;21.03;42.68;100942.24;1823448;78;25901;-59
2021/10/18 12:06:06;;;;;;;5.67;2.55;;;;;;;21.06;42.56;100944.27;1822535;78;25646;-55
2021/10/18 12:08:36;;;;;;;5.12;2.55;;;;;;;20.84;42.83;100949.13;1823031;78;25437;-56
2021/10/18 12:13:21;;;;;;;6.33;2.45;;;;;;;20.76;42.66;100946.05;1923917;74;26169;-57
2021/10/18 12:16:08;;;;;;;4.42;2.27;;;;;;;20.64;42.00;100944.23;1821171;78;25800;-57
2021/10/18 12:19:00;;;;;;;5.95;2.20;;;;;;;20.14;41.81;100946.11;1854656;77;29617;-57
2021/10/18 12:21:35;;;;;;;2.15;1.90;;;;;;;19.60;41.75;100945.40;1821336;78;25596;-57
2021/10/18 12:24:14;;;;;;;3.05;2.22;;;;;;;19.35;42.96;100939.28;1855095;77;25470;-57
2021/10/18 12:26:52;;;;;;;3.70;2.37;;;;;;;19.59;44.27;100941.05;1854929;77;25597;-57
2021/10/18 12:29:25;;;;;;;3.37;2.10;;;;;;;19.75;43.90;100935.02;1821351;78;25676;-57
2021/10/18 12:31:59;;;;;;;6.35;2.22;;;;;;;19.96;43.27;100937.45;1821401;78;27503;-58
2021/10/18 12:34:29;;;;;;;7.58;2.85;;;;;;;19.97;43.70;100942.36;1821319;78;25548;-58
2021/10/18 12:37:12;;;;;;;3.20;2.25;;;;;;;20.07;42.66;100939.06;1821371;78;25601;-57
2021/10/18 12:39:55;;;;;;;2.90;2.20;;;;;;;19.75;41.74;100939.69;1821309;78;25993;-58
2021/10/18 12:42:27;;;;;;;4.55;2.37;;;;;;;19.17;41.51;100945.66;1821407;78;25608;-56
2021/10/18 12:45:11;;;;;;;4.42;2.80;;;;;;;18.92;42.84;100939.53;1821364;78;27828;-57
2021/10/18 12:47:54;;;;;;;4.92;2.25;;;;;;;18.86;41.89;100947.19;1821327;78;25669;-58
2021/10/18 12:50:24;;;;;;;4.10;1.95;;;;;;;18.61;42.52;100936.86;1821257;78;25637;-57
2021/10/18 12:52:58;;;;;;;3.12;2.22;;;;;;;18.68;44.02;100934.34;1821331;78;25744;-57
2021/10/18 12:55:38;;;;;;;3.98;2.00;;;;;;;19.06;44.16;100930.89;1821451;78;25518;-57
2021/10/18 12:58:18;;;;;;;3.98;1.90;;;;;;;19.35;43.97;100926.94;1821401;78;28313;-58
2021/10/18 13:00:45;;;;;;;5.40;1.98;;;;;;;19.57;42.68;100927.68;1820911;78;25826;-57
2021/10/18 13:03:18;;;;;;;6.45;1.90;;;;;;;19.66;42.02;100938.47;1821354;78;25656;-57
2021/10/18 13:05:57;;;;;;;2.22;1.67;;;;;;;19.57;40.97;100939.24;1821332;78;25759;-57
2021/10/18 13:08:26;;;;;;;6.28;2.50;;;;;;;19.30;40.72;100941.70;1821536;78;25561;-57
2021/10/18 13:10:54;;;;;;;;;;;;;;;18.94;39.63;100941.34;1823924;78;28185;-57
2021/10/18 13:13:24;;;;;;;5.87;2.25;;;;;;;18.44;39.25;100943.45;1821278;78;25484;-57
2021/10/18 13:15:52;;;;;;;4.55;2.20;;;;;;;18.02;40.71;100943.16;1821324;78;25540;-58
2021/10/18 13:18:20;;;;;;;4.92;2.10;;;;;;;17.83;40.04;100943.72;1821447;78;25451;-57
2021/10/18 13:20:47;;;;;;;4.47;1.85;;;;;;;17.52;41.36;100936.86;1821334;78;25491;-57
2021/10/18 13:23:16;;;;;;;2.90;2.17;;;;;;;17.45;41.96;100943.47;1821024;78;27536;-57
2021/10/18 13:25:45;;;;;;;5.40;2.33;;;;;;;17.28;41.70;100948.56;1820810;78;25677;-56
2021/10/18 13:28:13;;;;;;;2.65;2.37;;;;;;;17.31;42.22;100953.33;1820885;78;25458;-57
2021/10/18 13:30:42;;;;;;;5.03;2.52;;;;;;;17.48;43.04;100941.40;1820719;78;25712;-57
2021/10/18 13:33:09;;;;;;;5.93;2.33;;;;;;;17.69;42.97;100939.95;1821017;78;25518;-57
2021/10/18 13:35:36;;;;;;;5.25;2.60;;;;;;;17.86;43.59;100942.22;1820757;78;27480;-57
2021/10/18 13:38:03;;;;;;;5.17;2.58;;;;;;;18.09;43.71;100940.63;1820676;78;25926;-56
2021/10/18 13:40:33;;;;;;;6.53;2.60;;;;;;;18.24;43.02;100935.03;1820710;78;25447;-57
2021/10/18 13:42:59;;;;;;;4.00;2.72;;;;;;;18.42;42.62;100935.57;1820812;78;25909;-57
2021/10/18 13:45:26;;;;;;;6.80;3.10;;;;;;;18.61;42.63;100945.89;1820714;78;25415;-57
2021/10/18 13:47:53;;;;;;;4.75;3.25;;;;;;;18.80;42.77;100941.14;1819606;78;27590;-57
2021/10/18 13:50:20;;;;;;;5.05;2.92;;;;;;;19.02;42.62;100943.92;1819874;78;25764;-57
2021/10/18 13:52:56;;;;;;;5.58;2.70;;;;;;;19.16;42.17;100946.83;1820586;78;25623;-57
2021/10/18 13:55:25;;;;;;;12.25;6.10;;;;;;;19.16;41.62;100950.94;1791043;78;25706;-57
2021/10/18 13:57:54;;;;;;;6.50;2.33;;;;;;;19.02;41.03;100959.58;1820869;78;25711;-57
2021/10/18 14:00:21;;;;;;;5.95;2.98;;;;;;;18.93;40.20;100961.66;1820838;78;27154;-57
2021/10/18 14:02:48;;;;;;;5.67;2.42;;;;;;;18.79;40.21;100971.05;1820494;78;25721;-57
2021/10/18 14:05:16;;;;;;;4.75;2.27;;;;;;;18.67;40.20;100961.50;1820699;78;25657;-57
2021/10/18 14:07:43;;;;;;;4.97;2.92;;;;;;;18.47;39.75;100967.38;1820677;78;25784;-57
2021/10/18 14:10:10;;;;;;;4.87;2.10;;;;;;;18.33;40.27;100969.70;1820724;78;25620;-57
2021/10/18 14:12:39;;;;;;;3.60;2.30;;;;;;;18.24;39.82;100966.52;1824214;78;27462;-57
2021/10/18 14:15:09;;;;;;;6.85;2.33;;;;;;;18.10;40.16;100968.25;1826957;78;26083;-57
2021/10/18 14:17:37;;;;;;;8.73;3.42;;;;;;;17.99;40.41;100968.47;1826796;78;25452;-57
2021/10/18 14:20:06;;;;;;;7.45;3.33;;;;;;;17.92;40.28;100970.41;1826589;78;25658;-56
2021/10/18 14:22:33;;;;;;;7.22;3.20;;;;;;;17.80;40.85;100970.96;1826683;78;25664;-55
2021/10/18 14:25:00;;;;;;;9.05;3.00;;;;;;;17.71;40.91;100965.61;1826853;78;28308;-56
2021/10/18 14:27:28;;;;;;;9.20;3.02;;;;;;;17.65;41.21;100972.42;1826679;78;25650;-56
2021/10/18 14:29:55;;;;;;;4.87;3.10;;;;;;;17.33;41.04;100962.56;1827003;78;25652;-56
2021/10/18 14:32:21;;;;;;;8.68;3.30;;;;;;;17.07;41.38;100967.73;1826680;78;25640;-56
2021/10/18 14:34:48;;;;;;;5.30;2.77;;;;;;;16.81;41.48;100965.22;1826765;78;25648;-56
2021/10/18 14:37:24;;;;;;;6.72;3.20;;;;;;;16.59;42.09;100969.89;1826766;78;27858;-57
2021/10/18 14:39:55;;;;;;;5.35;2.85;;;;;;;16.39;42.10;100972.83;1826817;78;25597;-56
2021/10/18 14:42:21;;;;;;;4.40;2.55;;;;;;;16.09;42.01;100982.17;1826749;78;25482;-57
2021/10/18 14:44:48;;;;;;;6.60;2.80;;;;;;;15.78;42.04;100977.29;1826591;78;25635;-57
2021/10/18 14:47:15;;;;;;;3.60;2.42;;;;;;;15.52;42.22;100979.27;1826711;78;25207;-56
2021/10/18 14:49:41;;;;;;;6.92;3.08;;;;;;;15.25;42.32;100967.62;1826832;78;27856;-57
2021/10/18 14:52:09;;;;;;;7.17;3.33;;;;;;;15.02;42.55;100966.47;1826522;78;25806;-57
2021/10/18 14:54:36;;;;;;;6.17;3.00;;;;;;;14.77;42.86;100970.80;1826733;78;25595;-56
2021/10/18 14:57:03;;;;;;;6.25;3.12;;;;;;;14.53;43.37;100969.89;1826725;78;25874;-56
2021/10/18 14:59:30;;;;;;;7.53;3.20;;;;;;;14.29;43.63;100971.14;1826865;78;25624;-56
2021/10/18 15:01:57;;;;;;;5.42;2.65;;;;;;;14.06;43.83;100974.51;1826728;78;28246;-56
2021/10/18 15:04:25;;;;;;;8.80;3.10;;;;;;;13.85;44.27;100981.66;1826705;78;25689;-55
2021/10/18 15:06:51;;;;;;;3.25;2.42;;;;;;;13.62;44.77;100972.18;1826760;78;25440;-56
2021/10/18 15:09:18;;;;;;;5.55;2.70;;;;;;;13.41;45.00;100976.00;1826547;78;25982;-56
2021/10/18 15:11:45;;;;;;;5.05;2.85;;;;;;;13.19;45.27;100974.88;1825966;78;25602;-55
2021/10/18 15:14:11;;;;;;;6.97;2.65;;;;;;;12.99;45.70;100984.34;1820711;78;27497;-56
2021/10/18 15:16:38;;;;;;;7.03;2.72;;;;;;;12.79;46.04;100982.11;1820585;78;25691;-57
2021/10/18 15:19:05;;;;;;;6.22;2.90;;;;;;;12.60;46.63;100980.88;1820686;78;25526;-56
2021/10/18 15:21:32;;;;;;;4.97;3.12;;;;;;;12.41;46.70;100989.17;1820605;78;25838;-56
2021/10/18 15:23:59;;;;;;;6.67;3.47;;;;;;;12.26;47.09;100984.86;1820665;78;25591;-57
2021/10/18 15:26:26;;;;;;;6.78;2.90;;;;;;;12.09;47.11;100989.02;1820621;78;27490;-55
2021/10/18 15:28:52;;;;;;;6.58;3.98;;;;;;;11.93;47.21;100989.84;1820434;78;25644;-57
2021/10/18 15:31:21;;;;;;;6.87;3.12;;;;;;;11.78;47.44;101000.95;1820697;78;25668;-55
2021/10/18 15:33:48;;;;;;;7.47;3.15;;;;;;;11.64;47.70;100992.80;1820782;78;25504;-55
2021/10/18 15:36:14;;;;;;;6.95;3.17;;;;;;;11.50;47.90;100999.56;1820664;78;25725;-53
2021/10/18 15:38:41;;;;;;;5.78;3.00;;;;;;;11.37;48.38;101005.73;1820450;78;27464;-51
2021/10/18 15:41:07;;;;;;;9.38;3.50;;;;;;;11.30;48.69;101003.97;1820561;78;25639;-54
2021/10/18 15:43:36;;;;;;;5.25;3.40;;;;;;;11.18;49.11;101007.14;1820617;78;25605;-55
2021/10/18 15:46:04;;;;;;;9.48;3.67;;;;;;;11.05;49.95;101010.59;1820609;78;25599;-55
2021/10/18 15:48:31;;;;;;;8.08;3.02;;;;;;;10.88;49.83;101009.23;1820653;78;25472;-54
2021/10/18 15:50:57;;;;;;;7.65;3.27;;;;;;;10.77;50.26;101007.76;1820651;78;27436;-51
2021/10/18 15:53:24;;;;;;;6.87;3.77;;;;;;;10.64;50.46;101016.04;1820497;78;25512;-52
2021/10/18 15:55:53;;;;;;;8.70;3.35;;;;;;;10.51;51.51;101012.17;1820610;78;25499;-53
2021/10/18 15:58:20;;;;;;;10.10;4.08;;;;;;;10.37;52.08;101009.90;1820579;78;25603;-53
2021/10/18 16:00:47;;;;;;;9.93;3.58;;;;;;;10.23;52.58;101015.18;1820711;78;25681;-54
2021/10/18 16:03:13;;;;;;;6.28;3.10;;;;;;;10.09;53.07;101011.02;1820472;78;27441;-50
2021/10/18 16:05:41;;;;;;;9.68;4.10;;;;;;;9.97;53.63;101010.63;1820457;78;25571;-52
2021/10/18 16:08:10;;;;;;;6.72;3.92;;;;;;;9.87;54.41;101011.53;1820475;78;25504;-53
2021/10/18 16:10:38;;;;;;;12.15;4.58;;;;;;;9.76;54.16;101023.00;1820525;78;25439;-54
2021/10/18 16:13:05;;;;;;;7.65;4.00;;;;;;;9.67;54.03;101013.36;1820500;78;25684;-53
2021/10/18 16:15:33;;;;;;;11.15;4.30;;;;;;;9.61;54.73;101017.19;1820602;78;27506;-52
2021/10/18 16:18:01;;;;;;;8.73;3.95;;;;;;;9.57;55.10;101024.78;1820534;78;25612;-54
2021/10/18 16:20:29;;;;;;;7.15;4.42;;;;;;;9.52;55.38;101018.91;1820544;78;25513;-51
2021/10/18 16:23:00;;;;;;;7.22;4.00;;;;;;;9.47;55.95;101027.05;1820665;78;26174;-53
2021/10/18 16:25:27;;;;;;;8.00;4.22;;;;;;;9.44;56.03;101020.86;1820627;78;25625;-52
2021/10/18 16:27:56;;;;;;;15.28;9.80;;;;;;;9.40;55.82;101023.33;1820585;78;27456;-52
2021/10/18 16:30:22;;;;;;;12.00;5.25;;;;;;;9.35;56.68;101026.86;1820535;78;25665;-53
2021/10/18 16:32:49;;;;;;;14.93;5.50;;;;;;;9.31;56.19;101025.83;1820551;78;25464;-50
2021/10/18 16:35:16;;;;;;;20.52;8.73;;;;;;;9.30;56.46;101033.66;1820648;78;26129;-53
2021/10/18 16:37:43;;;;;;;25.65;10.70;;;;;;;9.27;57.37;101036.91;1820597;78;25697;-53
2021/10/18 16:40:12;;;;;;;20.77;9.48;;;;;;;9.20;57.60;101032.94;1820654;78;27558;-50
2021/10/18 16:42:41;;;;;;;15.88;8.10;;;;;;;9.15;57.59;101033.22;1788183;80;25630;-52
2021/10/18 16:45:11;;;;;;;17.75;8.50;;;;;;;9.11;58.12;101040.83;1820713;78;25665;-55
2021/10/18 16:47:39;;;;;;;17.52;7.55;;;;;;;9.07;58.30;101034.36;1820593;78;25718;-53
2021/10/18 16:50:10;;;;;;;17.17;8.38;;;;;;;9.06;57.99;101034.09;1820596;78;25470;-52
2021/10/18 16:52:36;;;;;;;15.93;8.33;;;;;;;9.05;58.55;101033.84;1820565;78;28161;-52
2021/10/18 16:55:05;;;;;;;17.55;8.85;;;;;;;9.02;59.03;101033.84;1820190;78;25507;-52
2021/10/18 16:57:33;;;;;;;18.23;8.65;;;;;;;9.00;58.95;101033.33;1820713;78;25617;-56
2021/10/18 17:00:00;;;;;;;18.75;9.45;;;;;;;8.98;59.00;101035.50;1789024;78;26143;-54
2021/10/18 17:02:27;;;;;;;25.02;10.32;;;;;;;8.96;59.15;101031.73;1820756;78;25459;-55
2021/10/18 17:04:54;;;;;;;19.62;10.53;;;;;;;8.96;59.38;101033.08;1820696;78;28131;-52
2021/10/18 17:07:22;;;;;;;22.87;10.82;;;;;;;8.96;59.54;101035.78;1820636;78;26340;-54
2021/10/18 17:09:54;;;;;;;22.40;11.05;;;;;;;8.94;59.96;101038.52;1820723;78;25542;-53
2021/10/18 17:12:22;;;;;;;24.02;9.60;;;;;;;8.90;59.68;101042.28;1821096;78;26049;-54
2021/10/18 17:14:48;;;;;;;24.25;10.53;;;;;;;8.88;59.89;101041.77;1826943;78;25629;-54
2021/10/18 17:17:19;;;;;;;24.57;10.93;;;;;;;8.86;60.03;101043.14;1826808;78;27876;-54
2021/10/18 17:19:46;;;;;;;20.23;10.78;;;;;;;8.84;60.20;101043.42;1826510;78;26238;-52
2021/10/18 17:22:14;;;;;;;23.87;11.68;;;;;;;8.86;60.41;101044.48;1826801;78;25460;-55
2021/10/18 17:24:42;;;;;;;29.90;14.40;;;;;;;8.84;60.81;101044.77;1826774;78;25554;-53
2021/10/18 17:27:09;;;;;;;26.75;17.25;;;;;;;8.84;61.13;101039.38;1826828;78;25617;-53
2021/10/18 17:29:41;;;;;;;30.80;16.42;;;;;;;8.83;61.04;101041.80;1826787;78;27450;-55
2021/10/18 17:32:10;;;;;;;30.77;17.52;;;;;;;8.82;61.41;101041.55;1826703;78;25548;-55
2021/10/18 17:34:39;;;;;;;32.90;17.40;;;;;;;8.83;61.52;101040.44;1827051;78;25457;-54
2021/10/18 17:37:07;;;;;;;39.05;21.45;;;;;;;8.85;61.52;101044.22;1827017;78;25516;-54
2021/10/18 17:39:36;;;;;;;43.70;23.90;;;;;;;8.84;61.36;101046.11;1794331;80;25475;-55
2021/10/18 17:42:05;;;;;;;44.35;24.90;;;;;;;8.85;62.17;101050.95;1826889;78;28180;-56
2021/10/18 17:44:32;;;;;;;48.33;29.15;;;;;;;8.83;62.39;101055.28;1826695;78;25738;-55
2021/10/18 17:47:00;;;;;;;98.05;54.83;;;;;;;8.83;62.43;101050.44;1826863;78;25622;-56
2021/10/18 17:49:27;;;;;;;66.67;39.80;;;;;;;8.82;62.72;101048.30;1826754;78;25632;-55
2021/10/18 17:51:55;;;;;;;54.83;34.35;;;;;;;8.83;62.89;101053.93;1826917;78;25454;-54
2021/10/18 17:54:24;;;;;;;48.80;31.62;;;;;;;8.84;62.72;101058.25;1826784;78;27480;-54
2021/10/18 17:56:53;;;;;;;53.98;32.40;;;;;;;8.84;63.15;101054.20;1826814;78;25885;-54
2021/10/18 17:59:20;;;;;;;50.38;29.50;;;;;;;8.85;63.12;101052.31;1826904;78;25689;-56
2021/10/18 18:01:49;;;;;;;49.00;29.15;;;;;;;8.86;62.98;101056.63;1826729;78;25627;-55
2021/10/18 18:04:18;;;;;;;52.45;30.50;;;;;;;8.88;63.12;101054.45;1826785;78;25763;-56
2021/10/18 18:06:46;;;;;;;63.73;34.90;;;;;;;8.88;63.21;101050.41;1827015;78;27470;-54
2021/10/18 18:09:14;;;;;;;63.90;32.03;;;;;;;8.90;63.18;101049.03;1826662;78;25646;-55
2021/10/18 18:11:41;;;;;;;51.35;27.90;;;;;;;8.91;63.15;101050.66;1826764;78;25512;-55
2021/10/18 18:14:08;;;;;;;53.00;27.80;;;;;;;8.92;63.41;101049.58;1781545;80;25841;-55
2021/10/18 18:16:40;;;;;;;47.33;25.15;;;;;;;8.93;63.40;101050.37;1794265;79;25497;-55
2021/10/18 18:19:07;;;;;;;52.48;25.97;;;;;;;8.94;63.51;101058.75;1794231;79;28578;-57
2021/10/18 18:21:34;;;;;;;48.50;24.92;;;;;;;8.94;63.52;101054.15;1794131;80;25614;-55
2021/10/18 18:24:01;;;;;;;42.83;24.37;;;;;;;8.96;63.76;101056.02;1794223;80;25684;-55
2021/10/18 18:26:29;;;;;;;47.03;25.50;;;;;;;8.96;63.80;101056.56;1794187;80;25603;-55
2021/10/18 18:28:56;;;;;;;49.23;26.42;;;;;;;8.95;64.15;101058.44;1794264;80;25531;-56
2021/10/18 18:31:22;;;;;;;62.80;34.58;;;;;;;8.98;63.95;101066.53;1794205;80;27548;-56
2021/10/18 18:34:30;;;;;;;106.45;51.48;;;;;;;8.99;64.18;101065.46;1794103;80;25688;-56
2021/10/18 18:36:59;;;;;;;74.72;36.60;;;;;;;8.98;64.02;101068.69;1794243;79;25603;-56
2021/10/18 18:39:26;;;;;;;58.08;34.43;;;;;;;9.00;64.67;101069.75;1794287;79;25574;-56
2021/10/18 18:41:54;;;;;;;33.13;17.80;;;;;;;9.00;64.60;101075.70;1794223;80;25634;-55
2021/10/18 18:44:21;;;;;;;29.90;17.07;;;;;;;8.99;64.93;101081.66;1794198;80;28578;-56
2021/10/18 18:46:50;;;;;;;24.23;15.40;;;;;;;9.00;65.02;101082.45;1794160;79;25867;-56
2021/10/18 18:49:18;;;;;;;28.55;15.68;;;;;;;9.01;65.38;101084.05;1794191;80;25622;-56
2021/10/18 18:51:46;;;;;;;28.17;15.25;;;;;;;9.01;65.32;101085.39;1794302;80;25431;-56
2021/10/18 18:54:14;;;;;;;37.45;22.45;;;;;;;9.02;65.49;101087.02;1794212;80;25679;-55
2021/10/18 18:56:41;;;;;;;59.10;34.38;;;;;;;9.03;66.01;101083.25;1794201;80;26841;-58
2021/10/18 18:59:09;;;;;;;48.08;27.85;;;;;;;9.05;66.13;101081.87;1794096;80;25622;-56
2021/10/18 19:01:36;;;;;;;38.65;23.83;;;;;;;9.06;66.35;101091.59;1794195;79;25618;-55
2021/10/18 19:04:04;;;;;;;34.23;21.75;;;;;;;9.09;66.42;101091.56;1794237;80;25610;-56
2021/10/18 19:06:30;;;;;;;29.67;18.50;;;;;;;9.11;66.32;101098.86;1794219;80;25488;-55
2021/10/18 19:08:59;;;;;;;31.87;18.48;;;;;;;9.13;66.79;101100.73;1794148;80;27509;-56
2021/10/18 19:11:26;;;;;;;26.80;15.50;;;;;;;9.13;66.49;101097.48;1794373;79;25730;-57
2021/10/18 19:13:55;;;;;;;25.65;15.05;;;;;;;9.15;67.32;101093.95;1806060;78;25459;-57
2021/10/18 19:16:25;;;;;;;23.00;13.62;;;;;;;9.14;67.07;101094.23;1820956;78;25609;-56
2021/10/18 19:18:54;;;;;;;22.22;12.82;;;;;;;9.14;67.32;101103.15;1815888;78;25464;-57
2021/10/18 19:21:23;;;;;;;22.25;13.18;;;;;;;9.15;67.83;101095.85;1820637;78;27483;-57
2021/10/18 19:23:50;;;;;;;19.75;12.00;;;;;;;9.13;68.03;101096.12;1820710;78;25722;-57
2021/10/18 19:26:17;;;;;;;27.90;14.58;;;;;;;9.10;68.32;101096.67;1820623;78;25619;-57
2021/10/18 19:28:44;;;;;;;32.95;20.15;;;;;;;9.12;68.33;101096.41;1820579;78;25681;-57
2021/10/18 19:31:12;;;;;;;28.07;18.52;;;;;;;9.11;68.73;101099.66;1820694;78;25594;-56
2021/10/18 19:33:39;;;;;;;20.90;13.83;;;;;;;9.10;69.43;101096.67;1820662;78;27470;-57
2021/10/18 19:36:08;;;;;;;22.90;13.25;;;;;;;9.08;69.94;101098.06;1820542;78;25836;-57
2021/10/18 19:38:35;;;;;;;21.65;12.65;;;;;;;9.05;69.81;101098.06;1820764;78;25606;-57
2021/10/18 19:41:03;;;;;;;19.50;13.62;;;;;;;9.04;69.92;101091.06;1820576;78;25566;-58
2021/10/18 19:43:30;;;;;;;25.32;13.32;;;;;;;9.05;70.89;101091.31;1820649;78;25595;-57
2021/10/18 19:45:58;;;;;;;23.62;12.93;;;;;;;9.05;71.00;101090.52;1820603;78;27566;-56
2021/10/18 19:48:25;;;;;;;22.17;13.10;;;;;;;9.02;70.72;101095.91;1820584;78;25515;-55
2021/10/18 19:50:52;;;;;;;25.80;13.85;;;;;;;9.01;71.49;101092.14;1820567;78;25438;-57
2021/10/18 19:53:20;;;;;;;30.20;15.40;;;;;;;9.00;71.69;101095.39;1820510;78;25579;-56
2021/10/18 19:55:46;;;;;;;34.90;20.02;;;;;;;9.01;71.79;101084.05;1820619;78;25441;-55
2021/10/18 19:58:17;;;;;;;42.50;25.68;;;;;;;9.01;71.78;101089.44;1820610;78;27478;-56
2021/10/18 20:00:47;;;;;;;47.00;24.55;;;;;;;9.02;72.31;101089.72;1820383;78;25744;-56
2021/10/18 20:03:17;;;;;;;46.68;26.07;;;;;;;9.04;72.76;101092.94;1820634;78;25580;-56
2021/10/18 20:05:44;;;;;;;49.70;27.75;;;;;;;9.03;73.11;101092.69;1820561;78;25641;-55
2021/10/18 20:08:12;;;;;;;70.85;36.50;;;;;;;9.03;72.74;101091.34;1820627;78;25607;-57
2021/10/18 20:10:40;;;;;;;52.93;29.98;;;;;;;9.05;73.04;101095.91;1820705;78;28142;-58
2021/10/18 20:13:07;;;;;;;50.70;28.27;;;;;;;9.06;73.33;101097.51;1820438;78;25453;-56
2021/10/18 20:15:35;;;;;;;54.67;30.60;;;;;;;9.06;73.28;101092.11;1795254;79;25541;-57
2021/10/18 20:18:04;;;;;;;65.73;40.67;;;;;;;9.08;73.20;101096.16;1795541;79;26376;-57
2021/10/18 20:20:31;;;;;;;63.20;37.55;;;;;;;9.10;73.81;101099.38;1795243;79;25711;-57
2021/10/18 20:22:58;;;;;;;57.60;36.45;;;;;;;9.10;73.63;101098.03;1795238;79;27483;-56
2021/10/18 20:25:27;;;;;;;64.58;36.33;;;;;;;9.12;73.86;101096.41;1795155;79;25966;-57
2021/10/18 20:27:55;;;;;;;58.23;35.37;;;;;;;9.14;74.21;101103.67;1795464;79;25659;-57
2021/10/18 20:30:24;;;;;;;66.02;35.30;;;;;;;9.15;74.62;101108.00;1795215;79;26086;-57
2021/10/18 20:32:51;;;;;;;63.00;33.77;;;;;;;9.15;74.40;101107.45;1795615;79;25715;-57
2021/10/18 20:35:20;;;;;;;55.05;30.80;;;;;;;9.15;74.95;101111.49;1795408;79;27504;-57
2021/10/18 20:37:46;;;;;;;58.58;34.03;;;;;;;9.15;75.01;101114.74;1795436;79;25748;-58
2021/10/18 20:40:14;;;;;;;54.00;33.55;;;;;;;9.14;74.82;101106.38;1795405;79;25640;-57
2021/10/18 20:42:42;;;;;;;61.02;34.95;;;;;;;9.14;75.34;101113.12;1795382;79;25571;-57
2021/10/18 20:45:12;;;;;;;53.05;34.70;;;;;;;9.14;75.36;101113.12;1795409;79;25691;-57
2021/10/18 20:47:38;;;;;;;63.20;35.08;;;;;;;9.15;75.20;101112.84;1795417;79;28264;-56
2021/10/18 20:50:07;;;;;;;59.08;34.90;;;;;;;9.17;75.30;101111.22;1795216;79;25449;-57
2021/10/18 20:52:34;;;;;;;52.62;32.63;;;;;;;9.19;75.71;101107.69;1795421;79;25223;-58
2021/10/18 20:55:03;;;;;;;56.95;32.20;;;;;;;9.16;75.81;101112.32;1795357;79;26188;-58
2021/10/18 20:57:29;;;;;;;61.18;33.40;;;;;;;9.16;75.58;101112.32;1795571;79;25489;-57
2021/10/18 20:59:56;;;;;;;54.18;33.40;;;;;;;9.16;75.99;101119.07;1795412;79;27497;-58
2021/10/18 21:02:22;;;;;;;51.65;32.40;;;;;;;9.15;76.22;101119.59;1795284;79;26203;-58
2021/10/18 21:04:49;;;;;;;49.18;30.35;;;;;;;9.13;76.58;101116.92;1795408;79;25651;-58
2021/10/18 21:07:17;;;;;;;52.73;31.70;;;;;;;9.11;76.53;101117.20;1795364;79;26149;-58
2021/10/18 21:09:44;;;;;;;52.23;31.90;;;;;;;9.11;76.40;101125.30;1795366;79;25613;-59
2021/10/18 21:12:14;;;;;;;53.30;31.65;;;;;;;9.12;76.52;101119.34;1795464;79;28286;-58
2021/10/18 21:14:42;;;;;;;57.43;32.93;;;;;;;9.13;76.39;101117.72;1795203;79;25948;-58
2021/10/18 21:17:11;;;;;;;49.13;31.80;;;;;;;9.15;76.94;101122.29;1795356;79;25691;-58
2021/10/18 21:19:37;;;;;;;55.48;34.75;;;;;;;9.14;76.70;101114.47;1795284;79;25730;-58
2021/10/18 21:22:06;;;;;;;55.58;34.18;;;;;;;9.14;77.14;101116.64;1795411;79;25630;-57
2021/10/18 21:24:35;;;;;;;53.23;32.45;;;;;;;9.16;77.25;101126.62;1795472;79;28609;-58
2021/10/18 21:27:02;;;;;;;65.85;38.00;;;;;;;9.15;77.42;101122.29;1795326;79;26011;-58
2021/10/18 21:29:29;;;;;;;57.25;35.52;;;;;;;9.17;77.67;101132.81;1795355;79;25634;-59
2021/10/18 21:32:00;;;;;;;60.58;37.30;;;;;;;9.15;77.75;101130.94;1795316;79;26196;-59
2021/10/18 21:34:26;;;;;;;54.65;35.03;;;;;;;9.15;77.81;101133.09;1795222;79;25728;-59
2021/10/18 21:36:52;;;;;;;59.30;36.38;;;;;;;9.15;78.20;101132.29;1795443;79;28347;-57
2021/10/18 21:39:19;;;;;;;57.35;36.48;;;;;;;9.14;78.25;101132.02;1795264;79;26155;-58
2021/10/18 21:41:47;;;;;;;58.58;35.90;;;;;;;9.14;78.25;101130.66;1795366;79;25690;-57
2021/10/18 21:44:14;;;;;;;51.58;33.08;;;;;;;9.14;78.22;101130.66;1795334;79;26229;-57
2021/10/18 21:46:41;;;;;;;44.35;28.70;;;;;;;9.14;78.15;101131.48;1794008;79;25730;-57
2021/10/18 21:49:08;;;;;;;43.85;27.58;;;;;;;9.13;78.48;101132.56;1794260;79;28306;-58
2021/10/18 21:51:37;;;;;;;43.80;28.27;;;;;;;9.13;78.53;101136.61;1794874;79;25777;-58
2021/10/18 21:54:07;;;;;;;43.13;25.52;;;;;;;9.11;78.79;101132.59;1795492;79;25447;-57
2021/10/18 21:56:35;;;;;;;39.90;26.12;;;;;;;9.10;78.48;101128.27;1795374;79;26440;-57
2021/10/18 21:59:02;;;;;;;32.88;22.45;;;;;;;9.08;78.76;101135.30;1795423;79;25469;-59
2021/10/18 22:01:28;;;;;;;100.50;61.77;;;;;;;9.07;78.78;101134.22;1795389;79;28242;-57
2021/10/18 22:03:55;;;;;;;38.30;23.75;;;;;;;9.06;79.03;101135.29;1795301;79;26219;-59
2021/10/18 22:06:24;;;;;;;35.25;22.13;;;;;;;9.05;78.88;101135.84;1795387;79;25469;-59
2021/10/18 22:08:51;;;;;;;33.42;21.55;;;;;;;9.04;79.23;101137.47;1761940;79;26868;-59
2021/10/18 22:11:17;;;;;;;32.83;20.90;;;;;;;9.03;79.13;101136.67;1795402;79;25509;-59
2021/10/18 22:13:44;;;;;;;30.88;19.20;;;;;;;9.02;79.24;101138.29;1795258;79;27464;-59
2021/10/18 22:16:14;;;;;;;27.93;19.27;;;;;;;9.01;79.25;101132.62;1795245;79;25942;-57
2021/10/18 22:18:40;;;;;;;31.05;18.75;;;;;;;9.01;79.16;101133.45;1795491;79;31089;-57
2021/10/18 22:21:08;;;;;;;30.65;19.80;;;;;;;9.02;79.41;101139.64;1795325;79;25859;-57
2021/10/18 22:23:35;;;;;;;28.98;19.45;;;;;;;9.02;79.87;101143.69;1795382;79;25528;-57
2021/10/18 22:26:02;;;;;;;54.05;32.38;;;;;;;9.01;80.02;101146.94;1795415;79;26802;-57
2021/10/18 22:28:31;;;;;;;31.23;21.75;;;;;;;9.02;79.93;101145.03;1762186;79;25653;-57
2021/10/18 22:30:57;;;;;;;32.38;20.52;;;;;;;9.02;80.01;101139.64;1795345;79;25692;-57
2021/10/18 22:33:24;;;;;;;32.63;20.10;;;;;;;9.01;80.15;101133.97;1795255;79;25623;-57
2021/10/18 22:35:51;;;;;;;30.80;19.80;;;;;;;9.00;80.33;101140.47;1795358;79;25466;-57
2021/10/18 22:38:18;;;;;;;31.15;18.35;;;;;;;8.98;80.09;101139.39;1795308;79;27491;-56
2021/10/18 22:40:45;;;;;;;29.05;18.40;;;;;;;8.97;80.16;101143.98;1795174;79;25806;-57
2021/10/18 22:43:14;;;;;;;25.20;17.20;;;;;;;8.97;80.26;101146.69;1795288;79;25458;-57
2021/10/18 22:45:40;;;;;;;25.40;17.57;;;;;;;8.97;80.39;101139.94;1795243;79;25603;-57